createdAt,value
2023-03-22T00:04:32.902Z,16.77
2023-03-22T00:09:35.737Z,16.95
2023-03-22T00:14:37.979Z,20.48
2023-03-22T00:19:42.221Z,20.12
2023-03-22T00:24:44.766Z,17.90
2023-03-22T00:29:46.903Z,17.23
2023-03-22T00:34:49.018Z,18.50
2023-03-22T00:39:51.174Z,18.05
2023-03-22T00:44:53.267Z,19.42
2023-03-22T00:49:55.645Z,17.35
2023-03-22T00:54:58.400Z,19.53
2023-03-22T01:00:08.010Z,19.10
2023-03-22T01:05:15.797Z,20.30
2023-03-22T01:10:19.078Z,17.87
2023-03-22T01:15:22.620Z,18.95
2023-03-22T01:20:25.316Z,19.07
2023-03-22T01:25:27.643Z,21.23
2023-03-22T01:30:30.561Z,21.05
2023-03-22T01:35:33.262Z,20.67
2023-03-22T01:40:35.672Z,21.20
2023-03-22T01:45:48.020Z,18.50
2023-03-22T01:51:02.981Z,18.87
2023-03-22T01:56:06.174Z,21.60
2023-03-22T02:01:11.303Z,19.80
2023-03-22T02:06:13.755Z,20.90
2023-03-22T02:11:43.434Z,19.53
2023-03-22T02:17:08.834Z,19.60
2023-03-22T02:22:45.014Z,20.25
2023-03-22T02:28:14.400Z,20.62
2023-03-22T02:34:07.977Z,19.27
2023-03-22T02:39:19.721Z,20.40
2023-03-22T02:44:52.333Z,19.50
2023-03-22T02:50:03.783Z,19.95
2023-03-22T02:55:11.776Z,24.63
2023-03-22T03:00:16.264Z,19.17
2023-03-22T03:05:21.619Z,18.57
2023-03-22T03:10:24.525Z,18.45
2023-03-22T03:15:26.755Z,19.27
2023-03-22T03:20:37.845Z,24.02
2023-03-22T03:26:04.792Z,17.40
2023-03-22T03:31:09.961Z,19.40
2023-03-22T03:36:17.523Z,19.10
2023-03-22T03:41:27.226Z,20.80
2023-03-22T03:46:29.946Z,20.65
2023-03-22T03:51:33.463Z,21.15
2023-03-22T03:56:35.639Z,21.43
2023-03-22T04:01:37.792Z,21.37
2023-03-22T04:06:40.072Z,20.52
2023-03-22T04:11:42.474Z,20.45
2023-03-22T04:16:44.739Z,21.48
2023-03-22T04:21:47.438Z,21.10
2023-03-22T04:26:50.702Z,22.92
2023-03-22T04:31:53.209Z,21.20
2023-03-22T04:36:55.338Z,27.90
2023-03-22T04:41:57.464Z,24.23
2023-03-22T04:46:59.564Z,21.33
2023-03-22T04:52:01.692Z,22.20
2023-03-22T04:57:04.508Z,23.35
2023-03-22T05:02:06.663Z,22.98
2023-03-22T05:07:08.791Z,22.67
2023-03-22T05:12:11.124Z,23.53
2023-03-22T05:17:13.323Z,22.00
2023-03-22T05:22:15.497Z,25.85
2023-03-22T05:27:17.684Z,23.48
2023-03-22T05:32:25.837Z,21.87
2023-03-22T05:37:30.021Z,21.53
2023-03-22T05:42:32.376Z,22.10
2023-03-22T05:47:34.977Z,21.27
2023-03-22T05:58:38.284Z,22.62
2023-03-22T06:03:40.641Z,25.47
2023-03-22T06:08:43.056Z,25.37
2023-03-22T06:13:45.404Z,23.67
2023-03-22T06:18:47.579Z,27.10
2023-03-22T06:23:49.984Z,25.08
2023-03-22T06:28:52.174Z,26.50
2023-03-22T06:33:55.883Z,25.75
2023-03-22T06:39:02.970Z,24.92
2023-03-22T06:44:05.379Z,26.17
2023-03-22T06:49:08.131Z,33.78
2023-03-22T06:54:12.672Z,33.87
2023-03-22T06:59:14.933Z,32.35
2023-03-22T07:04:17.307Z,28.27
2023-03-22T07:09:19.737Z,31.30
2023-03-22T07:14:21.974Z,30.42
2023-03-22T07:19:24.319Z,31.17
2023-03-22T07:24:26.519Z,24.02
2023-03-22T07:29:28.749Z,19.98
2023-03-22T07:34:31.796Z,19.97
2023-03-22T07:39:34.848Z,20.62
2023-03-22T07:44:37.108Z,21.13
2023-03-22T07:49:39.326Z,23.73
2023-03-22T07:54:41.525Z,19.80
2023-03-22T07:59:44.329Z,20.97
2023-03-22T08:04:48.031Z,20.77
2023-03-22T08:09:52.115Z,20.13
2023-03-22T08:14:54.333Z,21.42
2023-03-22T08:19:56.779Z,18.77
2023-03-22T08:24:59.069Z,19.23
2023-03-22T08:30:01.251Z,18.73
2023-03-22T08:35:05.474Z,19.37
2023-03-22T08:40:09.681Z,19.58
2023-03-22T08:45:12.097Z,21.60
2023-03-22T08:50:14.386Z,18.27
2023-03-22T08:55:17.478Z,15.45
2023-03-22T09:00:19.924Z,17.50
2023-03-22T09:05:22.108Z,18.35
2023-03-22T09:10:24.423Z,17.42
2023-03-22T09:15:26.695Z,19.60
2023-03-22T09:20:28.859Z,19.45
2023-03-22T09:25:31.028Z,19.10
2023-03-22T09:30:33.165Z,19.25
2023-03-22T09:35:35.314Z,20.02
2023-03-22T09:41:00.411Z,17.67
2023-03-22T09:46:05.664Z,19.37
2023-03-22T09:51:33.350Z,17.93
2023-03-22T09:56:35.816Z,20.77
2023-03-22T10:01:41.103Z,18.58
2023-03-22T10:06:49.564Z,23.93
2023-03-22T10:11:58.749Z,19.10
2023-03-22T10:17:06.318Z,16.37
2023-03-22T10:22:12.884Z,20.33
2023-03-22T10:27:17.781Z,15.98
2023-03-22T10:32:28.231Z,15.80
2023-03-22T10:37:34.957Z,18.37
2023-03-22T10:42:39.563Z,17.73
2023-03-22T10:47:44.420Z,17.62
2023-03-22T10:52:51.511Z,15.80
2023-03-22T10:58:08.995Z,15.43
2023-03-22T11:03:26.505Z,17.52
2023-03-22T11:08:28.898Z,18.30
2023-03-22T11:13:35.379Z,17.75
2023-03-22T11:18:41.438Z,17.48
2023-03-22T11:24:04.849Z,17.23
2023-03-22T11:29:13.081Z,18.45
2023-03-22T11:34:21.752Z,20.13
2023-03-22T11:39:28.833Z,18.85
2023-03-22T11:44:38.097Z,18.17
2023-03-22T11:49:46.417Z,17.07
2023-03-22T11:54:49.436Z,18.98
2023-03-22T12:00:12.096Z,18.70
2023-03-22T12:05:33.919Z,18.48
2023-03-22T12:10:42.458Z,19.92
2023-03-22T12:15:50.640Z,15.20
2023-03-22T12:20:59.864Z,17.67
2023-03-22T12:26:07.080Z,19.30
2023-03-22T12:31:22.635Z,19.55
2023-03-22T12:36:47.686Z,17.73
2023-03-22T12:41:53.209Z,21.83
2023-03-22T12:47:13.034Z,16.58
2023-03-22T12:52:50.610Z,17.20
2023-03-22T12:57:54.758Z,17.73
2023-03-22T13:03:08.647Z,17.92
2023-03-22T13:08:13.074Z,16.70
2023-03-22T13:13:24.468Z,10.70
2023-03-22T13:18:32.642Z,11.03
2023-03-22T13:23:54.709Z,11.80
2023-03-22T13:28:59.460Z,8.47
2023-03-22T13:34:04.243Z,7.25
2023-03-22T13:39:12.507Z,9.82
2023-03-22T13:44:39.132Z,11.80
2023-03-22T13:49:49.293Z,11.77
2023-03-22T13:54:54.948Z,10.10
2023-03-22T14:00:20.572Z,11.02
2023-03-22T14:05:25.216Z,10.55
2023-03-22T14:10:43.680Z,10.73
2023-03-22T14:15:50.609Z,10.55
2023-03-22T14:21:01.930Z,9.30
